KTOC

Toccoa Rg Letourneau Field Airport

Toccoa, Georgia, USA
METAR KTOC 182215Z AUTO 00000KT 10SM CLR 35/21 A3006 RMK AO2 T03450212
Observed Flight Rules
Jun-18 @ 22:15 UTC (18 minutes ago) Visual Flight Rules
Visibility Clouds
10 miles
  • Clear skies
Temperatures Readings
Current 35°C / 95°F
Dewpoint 21°C / 70°F
Humidity 44%
Altimeter 30.06" Hg
Pressure 1018 hPa
Elevation 304
METAR KTOC 182215Z AUTO 00000KT 10SM CLR 35/21 A3006 RMK AO2 T03450212
Observed Flight Rules
Jun-18 @ 22:15 UTC
(18 minutes ago)
VFR
Clouds
  • Clear skies
Temperature Dewpoint
35°C / 95°F 21°C / 70°F
Humidity Altimeter Pressure
44% 30.06" Hg 1018 hPa